sensor_id;sensor_type;location;lat;lon;timestamp;P1;durP1;ratioP1;P2;durP2;ratioP2
5279;SDS011;2663;53.588;10.010;2023-04-06T00:00:50;6.20;;;4.30;;
5279;SDS011;2663;53.588;10.010;2023-04-06T00:03:18;6.57;;;4.40;;
5279;SDS011;2663;53.588;10.010;2023-04-06T00:05:46;9.50;;;4.13;;
5279;SDS011;2663;53.588;10.010;2023-04-06T00:08:13;6.03;;;3.93;;
5279;SDS011;2663;53.588;10.010;2023-04-06T00:10:40;7.47;;;4.20;;
5279;SDS011;2663;53.588;10.010;2023-04-06T00:13:07;4.37;;;3.53;;
5279;SDS011;2663;53.588;10.010;2023-04-06T00:15:34;7.60;;;4.63;;
5279;SDS011;2663;53.588;10.010;2023-04-06T00:18:01;9.50;;;4.60;;
5279;SDS011;2663;53.588;10.010;2023-04-06T00:20:29;8.30;;;4.30;;
5279;SDS011;2663;53.588;10.010;2023-04-06T00:22:55;5.90;;;4.20;;
5279;SDS011;2663;53.588;10.010;2023-04-06T00:25:22;8.67;;;4.60;;
5279;SDS011;2663;53.588;10.010;2023-04-06T00:27:49;8.93;;;4.07;;
5279;SDS011;2663;53.588;10.010;2023-04-06T00:30:16;7.00;;;4.33;;
5279;SDS011;2663;53.588;10.010;2023-04-06T00:32:43;7.17;;;4.13;;
5279;SDS011;2663;53.588;10.010;2023-04-06T00:35:09;6.70;;;4.17;;
5279;SDS011;2663;53.588;10.010;2023-04-06T00:37:36;6.33;;;4.03;;
5279;SDS011;2663;53.588;10.010;2023-04-06T00:40:03;4.03;;;3.60;;
5279;SDS011;2663;53.588;10.010;2023-04-06T00:42:30;9.40;;;4.33;;
5279;SDS011;2663;53.588;10.010;2023-04-06T00:44:58;6.00;;;4.00;;
5279;SDS011;2663;53.588;10.010;2023-04-06T00:47:26;6.43;;;4.07;;
5279;SDS011;2663;53.588;10.010;2023-04-06T00:49:53;15.53;;;4.60;;
5279;SDS011;2663;53.588;10.010;2023-04-06T00:52:20;15.23;;;4.80;;
5279;SDS011;2663;53.588;10.010;2023-04-06T00:54:47;8.87;;;4.30;;
5279;SDS011;2663;53.588;10.010;2023-04-06T00:57:15;6.10;;;4.27;;
5279;SDS011;2663;53.588;10.010;2023-04-06T00:59:41;5.23;;;3.90;;
5279;SDS011;2663;53.588;10.010;2023-04-06T01:02:08;6.53;;;4.27;;
5279;SDS011;2663;53.588;10.010;2023-04-06T01:04:35;16.03;;;4.50;;
5279;SDS011;2663;53.588;10.010;2023-04-06T01:07:02;9.00;;;4.40;;
5279;SDS011;2663;53.588;10.010;2023-04-06T01:09:29;9.40;;;4.40;;
5279;SDS011;2663;53.588;10.010;2023-04-06T01:11:57;6.60;;;4.60;;
5279;SDS011;2663;53.588;10.010;2023-04-06T01:14:24;9.43;;;4.00;;
5279;SDS011;2663;53.588;10.010;2023-04-06T01:16:51;13.33;;;6.93;;
5279;SDS011;2663;53.588;10.010;2023-04-06T01:19:18;18.93;;;6.00;;
5279;SDS011;2663;53.588;10.010;2023-04-06T01:21:46;9.57;;;5.37;;
5279;SDS011;2663;53.588;10.010;2023-04-06T01:24:15;6.67;;;4.37;;
5279;SDS011;2663;53.588;10.010;2023-04-06T01:26:42;4.93;;;4.40;;
5279;SDS011;2663;53.588;10.010;2023-04-06T01:29:09;5.80;;;3.80;;
5279;SDS011;2663;53.588;10.010;2023-04-06T01:31:36;12.00;;;4.60;;
5279;SDS011;2663;53.588;10.010;2023-04-06T01:34:03;11.20;;;4.53;;
5279;SDS011;2663;53.588;10.010;2023-04-06T01:36:30;10.77;;;4.47;;
5279;SDS011;2663;53.588;10.010;2023-04-06T01:38:57;9.67;;;4.10;;
5279;SDS011;2663;53.588;10.010;2023-04-06T01:41:24;5.00;;;3.43;;
5279;SDS011;2663;53.588;10.010;2023-04-06T01:43:51;6.37;;;4.50;;
5279;SDS011;2663;53.588;10.010;2023-04-06T01:46:20;11.93;;;4.40;;
5279;SDS011;2663;53.588;10.010;2023-04-06T01:48:47;8.17;;;4.97;;
5279;SDS011;2663;53.588;10.010;2023-04-06T01:51:14;5.57;;;3.67;;
5279;SDS011;2663;53.588;10.010;2023-04-06T01:53:41;6.07;;;4.53;;
5279;SDS011;2663;53.588;10.010;2023-04-06T01:56:07;8.33;;;4.00;;
5279;SDS011;2663;53.588;10.010;2023-04-06T01:58:34;7.40;;;4.17;;
5279;SDS011;2663;53.588;10.010;2023-04-06T02:01:02;5.33;;;3.50;;
5279;SDS011;2663;53.588;10.010;2023-04-06T02:03:28;7.43;;;4.07;;
5279;SDS011;2663;53.588;10.010;2023-04-06T02:05:56;5.93;;;3.90;;
5279;SDS011;2663;53.588;10.010;2023-04-06T02:08:23;4.77;;;3.10;;
5279;SDS011;2663;53.588;10.010;2023-04-06T02:10:50;4.93;;;3.97;;
5279;SDS011;2663;53.588;10.010;2023-04-06T02:13:16;7.30;;;3.33;;
5279;SDS011;2663;53.588;10.010;2023-04-06T02:15:43;6.10;;;4.20;;
5279;SDS011;2663;53.588;10.010;2023-04-06T02:18:10;5.90;;;4.07;;
5279;SDS011;2663;53.588;10.010;2023-04-06T02:20:36;9.03;;;4.13;;
5279;SDS011;2663;53.588;10.010;2023-04-06T02:23:03;9.50;;;4.03;;
5279;SDS011;2663;53.588;10.010;2023-04-06T02:25:30;7.70;;;3.93;;
5279;SDS011;2663;53.588;10.010;2023-04-06T02:27:56;14.60;;;4.27;;
5279;SDS011;2663;53.588;10.010;2023-04-06T02:30:23;6.30;;;4.00;;
5279;SDS011;2663;53.588;10.010;2023-04-06T02:32:50;8.60;;;4.70;;
5279;SDS011;2663;53.588;10.010;2023-04-06T02:35:17;8.67;;;4.43;;
5279;SDS011;2663;53.588;10.010;2023-04-06T02:37:44;7.63;;;3.60;;
5279;SDS011;2663;53.588;10.010;2023-04-06T02:40:11;6.70;;;4.77;;
5279;SDS011;2663;53.588;10.010;2023-04-06T02:42:37;8.00;;;4.20;;
5279;SDS011;2663;53.588;10.010;2023-04-06T02:45:04;5.77;;;3.73;;
5279;SDS011;2663;53.588;10.010;2023-04-06T02:47:32;5.40;;;4.03;;
5279;SDS011;2663;53.588;10.010;2023-04-06T02:49:59;7.40;;;4.23;;
5279;SDS011;2663;53.588;10.010;2023-04-06T02:52:26;4.37;;;3.63;;
5279;SDS011;2663;53.588;10.010;2023-04-06T02:54:52;11.37;;;4.70;;
5279;SDS011;2663;53.588;10.010;2023-04-06T02:57:19;7.10;;;4.17;;
5279;SDS011;2663;53.588;10.010;2023-04-06T02:59:46;8.47;;;4.27;;
5279;SDS011;2663;53.588;10.010;2023-04-06T03:02:12;4.17;;;3.60;;
5279;SDS011;2663;53.588;10.010;2023-04-06T03:04:39;8.67;;;4.87;;
5279;SDS011;2663;53.588;10.010;2023-04-06T03:07:06;8.17;;;3.97;;
5279;SDS011;2663;53.588;10.010;2023-04-06T03:09:32;7.40;;;4.10;;
5279;SDS011;2663;53.588;10.010;2023-04-06T03:11:59;4.57;;;4.10;;
5279;SDS011;2663;53.588;10.010;2023-04-06T03:14:27;9.50;;;4.67;;
5279;SDS011;2663;53.588;10.010;2023-04-06T03:16:54;5.87;;;3.73;;
5279;SDS011;2663;53.588;10.010;2023-04-06T03:19:20;6.27;;;4.20;;
5279;SDS011;2663;53.588;10.010;2023-04-06T03:21:47;11.97;;;5.17;;
5279;SDS011;2663;53.588;10.010;2023-04-06T03:24:14;7.97;;;4.00;;
5279;SDS011;2663;53.588;10.010;2023-04-06T03:26:40;11.40;;;4.47;;
5279;SDS011;2663;53.588;10.010;2023-04-06T03:29:07;7.00;;;4.40;;
5279;SDS011;2663;53.588;10.010;2023-04-06T03:31:34;6.73;;;3.63;;
5279;SDS011;2663;53.588;10.010;2023-04-06T03:34:01;5.40;;;4.30;;
5279;SDS011;2663;53.588;10.010;2023-04-06T03:36:28;6.53;;;4.80;;
5279;SDS011;2663;53.588;10.010;2023-04-06T03:38:54;8.00;;;5.37;;
5279;SDS011;2663;53.588;10.010;2023-04-06T03:41:21;6.67;;;4.70;;
5279;SDS011;2663;53.588;10.010;2023-04-06T03:43:48;11.00;;;4.53;;
5279;SDS011;2663;53.588;10.010;2023-04-06T03:46:14;7.13;;;4.07;;
5279;SDS011;2663;53.588;10.010;2023-04-06T03:48:41;8.20;;;4.37;;
5279;SDS011;2663;53.588;10.010;2023-04-06T03:51:08;9.20;;;4.00;;
5279;SDS011;2663;53.588;10.010;2023-04-06T03:53:35;4.30;;;3.57;;
5279;SDS011;2663;53.588;10.010;2023-04-06T03:56:03;12.13;;;4.47;;
5279;SDS011;2663;53.588;10.010;2023-04-06T03:58:30;5.80;;;4.40;;
5279;SDS011;2663;53.588;10.010;2023-04-06T04:00:57;7.70;;;4.60;;
5279;SDS011;2663;53.588;10.010;2023-04-06T04:03:23;6.60;;;4.10;;
5279;SDS011;2663;53.588;10.010;2023-04-06T04:05:53;8.33;;;5.03;;
5279;SDS011;2663;53.588;10.010;2023-04-06T04:08:21;6.93;;;4.17;;
5279;SDS011;2663;53.588;10.010;2023-04-06T04:10:48;7.23;;;4.40;;
5279;SDS011;2663;53.588;10.010;2023-04-06T04:13:14;10.80;;;4.93;;
5279;SDS011;2663;53.588;10.010;2023-04-06T04:15:41;10.00;;;4.80;;
5279;SDS011;2663;53.588;10.010;2023-04-06T04:18:08;11.83;;;4.87;;
5279;SDS011;2663;53.588;10.010;2023-04-06T04:20:35;7.20;;;4.43;;
5279;SDS011;2663;53.588;10.010;2023-04-06T04:23:01;11.00;;;4.67;;
5279;SDS011;2663;53.588;10.010;2023-04-06T04:25:28;8.63;;;5.50;;
5279;SDS011;2663;53.588;10.010;2023-04-06T04:27:54;10.00;;;5.10;;
5279;SDS011;2663;53.588;10.010;2023-04-06T04:30:21;6.80;;;4.87;;
5279;SDS011;2663;53.588;10.010;2023-04-06T04:32:48;10.97;;;5.20;;
5279;SDS011;2663;53.588;10.010;2023-04-06T04:35:14;7.67;;;5.17;;
5279;SDS011;2663;53.588;10.010;2023-04-06T04:37:41;8.97;;;4.73;;
5279;SDS011;2663;53.588;10.010;2023-04-06T04:40:08;10.20;;;5.10;;
5279;SDS011;2663;53.588;10.010;2023-04-06T04:42:35;6.90;;;4.80;;
5279;SDS011;2663;53.588;10.010;2023-04-06T04:45:02;8.37;;;5.13;;
5279;SDS011;2663;53.588;10.010;2023-04-06T04:47:29;7.50;;;4.40;;
5279;SDS011;2663;53.588;10.010;2023-04-06T04:49:55;8.43;;;5.10;;
5279;SDS011;2663;53.588;10.010;2023-04-06T04:52:22;7.53;;;4.80;;
5279;SDS011;2663;53.588;10.010;2023-04-06T04:54:48;9.13;;;4.83;;
5279;SDS011;2663;53.588;10.010;2023-04-06T04:57:15;11.20;;;5.20;;
5279;SDS011;2663;53.588;10.010;2023-04-06T04:59:42;6.67;;;5.03;;
5279;SDS011;2663;53.588;10.010;2023-04-06T05:02:09;9.63;;;4.37;;
5279;SDS011;2663;53.588;10.010;2023-04-06T05:04:36;7.30;;;4.47;;
5279;SDS011;2663;53.588;10.010;2023-04-06T05:07:05;12.00;;;5.00;;
5279;SDS011;2663;53.588;10.010;2023-04-06T05:09:33;9.57;;;5.80;;
5279;SDS011;2663;53.588;10.010;2023-04-06T05:12:00;6.30;;;4.23;;
5279;SDS011;2663;53.588;10.010;2023-04-06T05:14:27;6.53;;;4.77;;
5279;SDS011;2663;53.588;10.010;2023-04-06T05:16:54;16.57;;;5.20;;
5279;SDS011;2663;53.588;10.010;2023-04-06T05:19:21;7.63;;;4.77;;
5279;SDS011;2663;53.588;10.010;2023-04-06T05:21:48;6.57;;;3.93;;
5279;SDS011;2663;53.588;10.010;2023-04-06T05:24:14;7.97;;;5.00;;
5279;SDS011;2663;53.588;10.010;2023-04-06T05:26:41;7.97;;;4.70;;
5279;SDS011;2663;53.588;10.010;2023-04-06T05:29:08;11.13;;;5.23;;
5279;SDS011;2663;53.588;10.010;2023-04-06T05:31:35;4.57;;;4.10;;
5279;SDS011;2663;53.588;10.010;2023-04-06T05:34:02;9.70;;;5.53;;
5279;SDS011;2663;53.588;10.010;2023-04-06T05:36:29;8.40;;;5.00;;
5279;SDS011;2663;53.588;10.010;2023-04-06T05:38:57;13.83;;;5.10;;
5279;SDS011;2663;53.588;10.010;2023-04-06T05:41:24;15.70;;;5.20;;
5279;SDS011;2663;53.588;10.010;2023-04-06T05:43:50;13.63;;;4.57;;
5279;SDS011;2663;53.588;10.010;2023-04-06T05:46:17;6.10;;;4.57;;
5279;SDS011;2663;53.588;10.010;2023-04-06T05:48:44;10.03;;;5.10;;
5279;SDS011;2663;53.588;10.010;2023-04-06T05:51:11;5.63;;;4.60;;
5279;SDS011;2663;53.588;10.010;2023-04-06T05:53:38;10.67;;;5.67;;
5279;SDS011;2663;53.588;10.010;2023-04-06T05:56:04;9.47;;;5.33;;
5279;SDS011;2663;53.588;10.010;2023-04-06T05:58:31;8.47;;;5.20;;
5279;SDS011;2663;53.588;10.010;2023-04-06T06:00:59;6.63;;;4.80;;
5279;SDS011;2663;53.588;10.010;2023-04-06T06:03:26;8.73;;;5.50;;
5279;SDS011;2663;53.588;10.010;2023-04-06T06:05:58;6.70;;;4.97;;
5279;SDS011;2663;53.588;10.010;2023-04-06T06:08:26;10.60;;;5.17;;
5279;SDS011;2663;53.588;10.010;2023-04-06T06:10:53;12.67;;;4.63;;
5279;SDS011;2663;53.588;10.010;2023-04-06T06:13:20;13.47;;;5.50;;
5279;SDS011;2663;53.588;10.010;2023-04-06T06:15:46;9.23;;;6.00;;
5279;SDS011;2663;53.588;10.010;2023-04-06T06:18:13;8.00;;;5.23;;
5279;SDS011;2663;53.588;10.010;2023-04-06T06:20:40;9.13;;;6.03;;
5279;SDS011;2663;53.588;10.010;2023-04-06T06:23:06;6.53;;;5.60;;
5279;SDS011;2663;53.588;10.010;2023-04-06T06:25:33;11.07;;;6.27;;
5279;SDS011;2663;53.588;10.010;2023-04-06T06:28:00;6.90;;;5.10;;
5279;SDS011;2663;53.588;10.010;2023-04-06T06:30:27;9.90;;;6.63;;
5279;SDS011;2663;53.588;10.010;2023-04-06T06:32:53;8.13;;;5.53;;
5279;SDS011;2663;53.588;10.010;2023-04-06T06:35:20;7.90;;;6.30;;
5279;SDS011;2663;53.588;10.010;2023-04-06T06:37:47;8.13;;;5.93;;
5279;SDS011;2663;53.588;10.010;2023-04-06T06:40:14;12.60;;;6.47;;
5279;SDS011;2663;53.588;10.010;2023-04-06T06:42:42;7.60;;;5.40;;
5279;SDS011;2663;53.588;10.010;2023-04-06T06:45:08;8.40;;;6.37;;
5279;SDS011;2663;53.588;10.010;2023-04-06T06:47:36;8.47;;;6.20;;
5279;SDS011;2663;53.588;10.010;2023-04-06T06:50:02;12.00;;;7.03;;
5279;SDS011;2663;53.588;10.010;2023-04-06T06:52:29;10.60;;;6.40;;
5279;SDS011;2663;53.588;10.010;2023-04-06T06:54:56;9.07;;;6.37;;
5279;SDS011;2663;53.588;10.010;2023-04-06T06:57:23;10.10;;;6.00;;
5279;SDS011;2663;53.588;10.010;2023-04-06T06:59:49;14.13;;;6.53;;
5279;SDS011;2663;53.588;10.010;2023-04-06T07:02:16;12.13;;;6.27;;
5279;SDS011;2663;53.588;10.010;2023-04-06T07:04:43;7.80;;;6.03;;
5279;SDS011;2663;53.588;10.010;2023-04-06T07:07:09;6.43;;;5.80;;
5279;SDS011;2663;53.588;10.010;2023-04-06T07:09:36;15.97;;;6.13;;
5279;SDS011;2663;53.588;10.010;2023-04-06T07:12:03;20.90;;;6.83;;
5279;SDS011;2663;53.588;10.010;2023-04-06T07:14:29;12.30;;;5.73;;
5279;SDS011;2663;53.588;10.010;2023-04-06T07:16:56;6.63;;;5.50;;
5279;SDS011;2663;53.588;10.010;2023-04-06T07:19:23;5.30;;;4.00;;
5279;SDS011;2663;53.588;10.010;2023-04-06T07:21:49;8.87;;;4.40;;
5279;SDS011;2663;53.588;10.010;2023-04-06T07:24:16;8.20;;;5.03;;
5279;SDS011;2663;53.588;10.010;2023-04-06T07:26:43;7.30;;;4.47;;
5279;SDS011;2663;53.588;10.010;2023-04-06T07:29:09;9.57;;;4.90;;
5279;SDS011;2663;53.588;10.010;2023-04-06T07:31:36;7.93;;;5.03;;
5279;SDS011;2663;53.588;10.010;2023-04-06T07:34:03;6.90;;;5.63;;
5279;SDS011;2663;53.588;10.010;2023-04-06T07:36:30;7.27;;;5.60;;
5279;SDS011;2663;53.588;10.010;2023-04-06T07:38:56;12.67;;;4.80;;
5279;SDS011;2663;53.588;10.010;2023-04-06T07:41:23;18.00;;;4.63;;
5279;SDS011;2663;53.588;10.010;2023-04-06T07:43:50;6.83;;;5.27;;
5279;SDS011;2663;53.588;10.010;2023-04-06T07:46:17;8.60;;;5.70;;
5279;SDS011;2663;53.588;10.010;2023-04-06T07:48:44;12.03;;;5.77;;
5279;SDS011;2663;53.588;10.010;2023-04-06T07:51:10;5.47;;;4.10;;
5279;SDS011;2663;53.588;10.010;2023-04-06T07:53:40;7.87;;;5.17;;
5279;SDS011;2663;53.588;10.010;2023-04-06T07:56:07;7.70;;;4.87;;
5279;SDS011;2663;53.588;10.010;2023-04-06T07:58:33;8.77;;;4.50;;
5279;SDS011;2663;53.588;10.010;2023-04-06T08:01:00;6.93;;;4.80;;
5279;SDS011;2663;53.588;10.010;2023-04-06T08:03:27;7.43;;;4.60;;
5279;SDS011;2663;53.588;10.010;2023-04-06T08:05:54;5.10;;;4.40;;
5279;SDS011;2663;53.588;10.010;2023-04-06T08:08:21;8.23;;;4.80;;
5279;SDS011;2663;53.588;10.010;2023-04-06T08:10:48;8.53;;;4.50;;
5279;SDS011;2663;53.588;10.010;2023-04-06T08:13:15;13.90;;;5.30;;
5279;SDS011;2663;53.588;10.010;2023-04-06T08:15:42;15.87;;;7.90;;
5279;SDS011;2663;53.588;10.010;2023-04-06T08:18:09;11.77;;;6.20;;
5279;SDS011;2663;53.588;10.010;2023-04-06T08:20:35;27.77;;;11.20;;
5279;SDS011;2663;53.588;10.010;2023-04-06T08:23:02;10.00;;;5.40;;
5279;SDS011;2663;53.588;10.010;2023-04-06T08:25:29;11.00;;;4.33;;
5279;SDS011;2663;53.588;10.010;2023-04-06T08:27:55;5.90;;;4.30;;
5279;SDS011;2663;53.588;10.010;2023-04-06T08:30:22;11.03;;;5.20;;
5279;SDS011;2663;53.588;10.010;2023-04-06T08:32:49;8.80;;;4.40;;
5279;SDS011;2663;53.588;10.010;2023-04-06T08:35:16;13.73;;;4.77;;
5279;SDS011;2663;53.588;10.010;2023-04-06T08:37:43;7.33;;;4.10;;
5279;SDS011;2663;53.588;10.010;2023-04-06T08:40:10;6.70;;;4.30;;
5279;SDS011;2663;53.588;10.010;2023-04-06T08:42:39;9.67;;;4.30;;
5279;SDS011;2663;53.588;10.010;2023-04-06T08:45:09;10.87;;;4.70;;
5279;SDS011;2663;53.588;10.010;2023-04-06T08:47:36;7.10;;;4.10;;
5279;SDS011;2663;53.588;10.010;2023-04-06T08:50:03;7.30;;;4.33;;
5279;SDS011;2663;53.588;10.010;2023-04-06T08:52:31;11.90;;;4.27;;
5279;SDS011;2663;53.588;10.010;2023-04-06T08:54:59;9.40;;;4.93;;
5279;SDS011;2663;53.588;10.010;2023-04-06T08:57:26;8.30;;;5.40;;
5279;SDS011;2663;53.588;10.010;2023-04-06T08:59:53;21.73;;;9.10;;
5279;SDS011;2663;53.588;10.010;2023-04-06T09:02:22;10.87;;;6.03;;
5279;SDS011;2663;53.588;10.010;2023-04-06T09:04:52;7.07;;;4.80;;
5279;SDS011;2663;53.588;10.010;2023-04-06T09:07:20;7.90;;;4.93;;
5279;SDS011;2663;53.588;10.010;2023-04-06T09:09:47;11.07;;;4.00;;
5279;SDS011;2663;53.588;10.010;2023-04-06T09:12:26;11.37;;;5.00;;
5279;SDS011;2663;53.588;10.010;2023-04-06T09:14:55;14.07;;;7.00;;
5279;SDS011;2663;53.588;10.010;2023-04-06T09:17:23;19.17;;;8.10;;
5279;SDS011;2663;53.588;10.010;2023-04-06T09:19:56;16.00;;;4.80;;
5279;SDS011;2663;53.588;10.010;2023-04-06T09:22:23;13.80;;;4.77;;
5279;SDS011;2663;53.588;10.010;2023-04-06T09:24:52;13.13;;;5.23;;
5279;SDS011;2663;53.588;10.010;2023-04-06T09:27:43;13.10;;;6.00;;
5279;SDS011;2663;53.588;10.010;2023-04-06T09:30:07;7.67;;;4.43;;
5279;SDS011;2663;53.588;10.010;2023-04-06T09:32:52;10.00;;;5.40;;
5279;SDS011;2663;53.588;10.010;2023-04-06T09:35:19;7.33;;;3.67;;
5279;SDS011;2663;53.588;10.010;2023-04-06T09:37:47;7.97;;;3.63;;
5279;SDS011;2663;53.588;10.010;2023-04-06T09:40:18;13.03;;;5.87;;
5279;SDS011;2663;53.588;10.010;2023-04-06T09:42:46;7.67;;;4.80;;
5279;SDS011;2663;53.588;10.010;2023-04-06T09:45:14;9.47;;;5.27;;
5279;SDS011;2663;53.588;10.010;2023-04-06T09:47:42;6.33;;;3.90;;
5279;SDS011;2663;53.588;10.010;2023-04-06T09:50:14;12.23;;;5.00;;
5279;SDS011;2663;53.588;10.010;2023-04-06T09:52:46;4.97;;;4.10;;
5279;SDS011;2663;53.588;10.010;2023-04-06T09:55:20;11.20;;;5.43;;
5279;SDS011;2663;53.588;10.010;2023-04-06T10:00:34;8.60;;;4.20;;
5279;SDS011;2663;53.588;10.010;2023-04-06T10:03:14;7.53;;;4.87;;
5279;SDS011;2663;53.588;10.010;2023-04-06T10:05:56;5.03;;;3.77;;
5279;SDS011;2663;53.588;10.010;2023-04-06T10:08:27;6.13;;;3.60;;
5279;SDS011;2663;53.588;10.010;2023-04-06T10:10:58;9.30;;;3.27;;
5279;SDS011;2663;53.588;10.010;2023-04-06T10:13:26;9.27;;;3.83;;
5279;SDS011;2663;53.588;10.010;2023-04-06T10:15:54;6.03;;;3.17;;
5279;SDS011;2663;53.588;10.010;2023-04-06T10:18:21;13.03;;;3.23;;
5279;SDS011;2663;53.588;10.010;2023-04-06T10:25:57;8.43;;;3.20;;
5279;SDS011;2663;53.588;10.010;2023-04-06T10:28:25;8.80;;;3.10;;
5279;SDS011;2663;53.588;10.010;2023-04-06T10:30:57;4.20;;;3.10;;
5279;SDS011;2663;53.588;10.010;2023-04-06T10:33:25;9.17;;;3.80;;
5279;SDS011;2663;53.588;10.010;2023-04-06T10:35:53;9.33;;;4.60;;
5279;SDS011;2663;53.588;10.010;2023-04-06T10:38:32;3.97;;;3.13;;
5279;SDS011;2663;53.588;10.010;2023-04-06T10:41:06;4.10;;;3.70;;
5279;SDS011;2663;53.588;10.010;2023-04-06T10:43:35;4.03;;;3.40;;
5279;SDS011;2663;53.588;10.010;2023-04-06T10:46:04;9.07;;;4.00;;
5279;SDS011;2663;53.588;10.010;2023-04-06T10:48:36;6.03;;;4.00;;
5279;SDS011;2663;53.588;10.010;2023-04-06T10:51:08;4.40;;;3.33;;
5279;SDS011;2663;53.588;10.010;2023-04-06T10:53:43;4.17;;;3.77;;
5279;SDS011;2663;53.588;10.010;2023-04-06T10:56:12;5.87;;;3.50;;
5279;SDS011;2663;53.588;10.010;2023-04-06T10:58:46;8.60;;;4.70;;
5279;SDS011;2663;53.588;10.010;2023-04-06T11:01:19;7.60;;;4.70;;
5279;SDS011;2663;53.588;10.010;2023-04-06T11:03:51;5.90;;;4.13;;
5279;SDS011;2663;53.588;10.010;2023-04-06T11:06:23;8.07;;;4.00;;
5279;SDS011;2663;53.588;10.010;2023-04-06T11:08:55;4.73;;;4.10;;
5279;SDS011;2663;53.588;10.010;2023-04-06T11:11:23;7.60;;;4.10;;
5279;SDS011;2663;53.588;10.010;2023-04-06T11:13:56;7.30;;;4.50;;
5279;SDS011;2663;53.588;10.010;2023-04-06T11:16:29;10.60;;;4.60;;
5279;SDS011;2663;53.588;10.010;2023-04-06T11:19:01;19.37;;;5.13;;
5279;SDS011;2663;53.588;10.010;2023-04-06T11:21:45;9.10;;;4.40;;
5279;SDS011;2663;53.588;10.010;2023-04-06T11:24:20;7.00;;;5.17;;
5279;SDS011;2663;53.588;10.010;2023-04-06T11:26:49;11.40;;;5.40;;
5279;SDS011;2663;53.588;10.010;2023-04-06T11:29:25;13.00;;;5.93;;
5279;SDS011;2663;53.588;10.010;2023-04-06T11:31:54;23.70;;;9.40;;
5279;SDS011;2663;53.588;10.010;2023-04-06T11:34:25;8.07;;;5.70;;
5279;SDS011;2663;53.588;10.010;2023-04-06T11:36:55;13.40;;;6.67;;
5279;SDS011;2663;53.588;10.010;2023-04-06T11:39:28;9.53;;;6.30;;
5279;SDS011;2663;53.588;10.010;2023-04-06T11:41:59;9.63;;;6.23;;
5279;SDS011;2663;53.588;10.010;2023-04-06T11:44:34;8.73;;;5.93;;
5279;SDS011;2663;53.588;10.010;2023-04-06T11:47:03;16.73;;;6.17;;
5279;SDS011;2663;53.588;10.010;2023-04-06T11:49:31;11.23;;;5.80;;
5279;SDS011;2663;53.588;10.010;2023-04-06T11:52:01;9.13;;;5.67;;
5279;SDS011;2663;53.588;10.010;2023-04-06T11:54:35;7.80;;;5.97;;
5279;SDS011;2663;53.588;10.010;2023-04-06T11:57:04;14.10;;;5.93;;
5279;SDS011;2663;53.588;10.010;2023-04-06T11:59:31;9.67;;;6.03;;
5279;SDS011;2663;53.588;10.010;2023-04-06T12:01:59;7.17;;;5.60;;
5279;SDS011;2663;53.588;10.010;2023-04-06T12:04:25;27.57;;;5.70;;
5279;SDS011;2663;53.588;10.010;2023-04-06T12:06:52;8.37;;;5.20;;
5279;SDS011;2663;53.588;10.010;2023-04-06T12:09:19;12.10;;;5.70;;
5279;SDS011;2663;53.588;10.010;2023-04-06T12:11:46;17.40;;;6.30;;
5279;SDS011;2663;53.588;10.010;2023-04-06T12:14:13;7.37;;;5.40;;
5279;SDS011;2663;53.588;10.010;2023-04-06T12:16:40;11.93;;;6.00;;
5279;SDS011;2663;53.588;10.010;2023-04-06T12:19:07;10.80;;;6.00;;
5279;SDS011;2663;53.588;10.010;2023-04-06T12:21:34;7.20;;;5.40;;
5279;SDS011;2663;53.588;10.010;2023-04-06T12:24:03;12.07;;;6.70;;
5279;SDS011;2663;53.588;10.010;2023-04-06T12:26:30;12.83;;;5.43;;
5279;SDS011;2663;53.588;10.010;2023-04-06T12:28:58;9.43;;;5.23;;
5279;SDS011;2663;53.588;10.010;2023-04-06T12:31:35;12.87;;;4.80;;
5279;SDS011;2663;53.588;10.010;2023-04-06T12:34:03;9.70;;;6.00;;
5279;SDS011;2663;53.588;10.010;2023-04-06T12:36:29;7.70;;;5.07;;
5279;SDS011;2663;53.588;10.010;2023-04-06T12:38:57;12.23;;;6.10;;
5279;SDS011;2663;53.588;10.010;2023-04-06T12:41:24;14.97;;;6.10;;
5279;SDS011;2663;53.588;10.010;2023-04-06T12:43:51;8.60;;;5.40;;
5279;SDS011;2663;53.588;10.010;2023-04-06T12:46:18;8.80;;;5.40;;
5279;SDS011;2663;53.588;10.010;2023-04-06T12:48:44;9.30;;;5.73;;
5279;SDS011;2663;53.588;10.010;2023-04-06T12:51:11;10.93;;;5.90;;
5279;SDS011;2663;53.588;10.010;2023-04-06T12:53:38;10.17;;;6.27;;
5279;SDS011;2663;53.588;10.010;2023-04-06T12:56:18;14.23;;;6.80;;
5279;SDS011;2663;53.588;10.010;2023-04-06T12:58:47;9.30;;;6.37;;
5279;SDS011;2663;53.588;10.010;2023-04-06T13:01:13;7.70;;;5.23;;
5279;SDS011;2663;53.588;10.010;2023-04-06T13:03:40;11.53;;;6.17;;
5279;SDS011;2663;53.588;10.010;2023-04-06T13:06:07;11.27;;;6.63;;
5279;SDS011;2663;53.588;10.010;2023-04-06T13:08:34;9.33;;;6.70;;
5279;SDS011;2663;53.588;10.010;2023-04-06T13:11:05;12.13;;;6.33;;
5279;SDS011;2663;53.588;10.010;2023-04-06T13:13:35;8.90;;;5.90;;
5279;SDS011;2663;53.588;10.010;2023-04-06T13:16:03;12.20;;;6.33;;
5279;SDS011;2663;53.588;10.010;2023-04-06T13:18:32;11.20;;;5.70;;
5279;SDS011;2663;53.588;10.010;2023-04-06T13:21:00;10.73;;;6.37;;
5279;SDS011;2663;53.588;10.010;2023-04-06T13:23:27;20.80;;;6.33;;
5279;SDS011;2663;53.588;10.010;2023-04-06T13:25:57;16.50;;;6.77;;
5279;SDS011;2663;53.588;10.010;2023-04-06T13:28:34;11.83;;;6.43;;
5279;SDS011;2663;53.588;10.010;2023-04-06T13:31:03;12.33;;;6.40;;
5279;SDS011;2663;53.588;10.010;2023-04-06T13:33:30;11.33;;;6.47;;
5279;SDS011;2663;53.588;10.010;2023-04-06T13:35:57;10.10;;;6.27;;
5279;SDS011;2663;53.588;10.010;2023-04-06T13:38:25;12.87;;;6.97;;
5279;SDS011;2663;53.588;10.010;2023-04-06T13:40:51;15.83;;;8.00;;
5279;SDS011;2663;53.588;10.010;2023-04-06T13:43:18;25.43;;;10.27;;
5279;SDS011;2663;53.588;10.010;2023-04-06T13:45:53;19.90;;;10.37;;
5279;SDS011;2663;53.588;10.010;2023-04-06T13:48:25;50.07;;;20.23;;
5279;SDS011;2663;53.588;10.010;2023-04-06T13:50:52;12.60;;;7.73;;
5279;SDS011;2663;53.588;10.010;2023-04-06T13:53:19;11.00;;;5.60;;
5279;SDS011;2663;53.588;10.010;2023-04-06T13:55:53;14.03;;;5.83;;
5279;SDS011;2663;53.588;10.010;2023-04-06T13:58:20;14.27;;;7.83;;
5279;SDS011;2663;53.588;10.010;2023-04-06T14:00:47;12.67;;;7.23;;
5279;SDS011;2663;53.588;10.010;2023-04-06T14:03:14;11.43;;;6.53;;
5279;SDS011;2663;53.588;10.010;2023-04-06T14:05:41;8.60;;;6.20;;
5279;SDS011;2663;53.588;10.010;2023-04-06T14:08:07;11.43;;;7.30;;
5279;SDS011;2663;53.588;10.010;2023-04-06T14:10:38;9.83;;;6.30;;
5279;SDS011;2663;53.588;10.010;2023-04-06T14:13:06;16.47;;;7.63;;
5279;SDS011;2663;53.588;10.010;2023-04-06T14:15:33;8.13;;;5.30;;
5279;SDS011;2663;53.588;10.010;2023-04-06T14:18:01;9.97;;;7.30;;
5279;SDS011;2663;53.588;10.010;2023-04-06T14:20:30;12.50;;;6.70;;
5279;SDS011;2663;53.588;10.010;2023-04-06T14:23:01;8.80;;;6.10;;
5279;SDS011;2663;53.588;10.010;2023-04-06T14:25:28;10.27;;;6.50;;
5279;SDS011;2663;53.588;10.010;2023-04-06T14:28:00;9.27;;;6.73;;
5279;SDS011;2663;53.588;10.010;2023-04-06T14:30:29;12.00;;;7.27;;
5279;SDS011;2663;53.588;10.010;2023-04-06T14:32:57;10.63;;;6.60;;
5279;SDS011;2663;53.588;10.010;2023-04-06T14:35:24;10.07;;;6.83;;
5279;SDS011;2663;53.588;10.010;2023-04-06T14:37:51;10.80;;;6.60;;
5279;SDS011;2663;53.588;10.010;2023-04-06T14:40:18;12.30;;;6.70;;
5279;SDS011;2663;53.588;10.010;2023-04-06T14:42:44;9.40;;;6.27;;
5279;SDS011;2663;53.588;10.010;2023-04-06T14:45:11;10.47;;;7.63;;
5279;SDS011;2663;53.588;10.010;2023-04-06T14:47:38;11.20;;;7.43;;
5279;SDS011;2663;53.588;10.010;2023-04-06T14:50:05;17.37;;;8.23;;
5279;SDS011;2663;53.588;10.010;2023-04-06T14:52:32;13.23;;;7.90;;
5279;SDS011;2663;53.588;10.010;2023-04-06T14:54:58;19.90;;;12.23;;
5279;SDS011;2663;53.588;10.010;2023-04-06T14:57:25;34.67;;;20.33;;
5279;SDS011;2663;53.588;10.010;2023-04-06T14:59:54;18.10;;;11.33;;
5279;SDS011;2663;53.588;10.010;2023-04-06T15:02:21;8.47;;;6.30;;
5279;SDS011;2663;53.588;10.010;2023-04-06T15:04:48;14.87;;;9.10;;
5279;SDS011;2663;53.588;10.010;2023-04-06T15:07:16;13.27;;;6.63;;